createdAt,value
2023-02-12T00:00:54.537Z,2.86
2023-02-12T00:01:56.409Z,2.85
2023-02-12T00:02:59.148Z,2.85
2023-02-12T00:04:01.168Z,2.85
2023-02-12T00:05:03.968Z,2.83
2023-02-12T00:06:06.427Z,2.83
2023-02-12T00:07:09.753Z,2.83
2023-02-12T00:08:12.027Z,2.81
2023-02-12T00:09:16.113Z,2.81
2023-02-12T00:10:18.184Z,2.80
2023-02-12T00:11:23.138Z,2.79
2023-02-12T00:12:25.017Z,2.78
2023-02-12T00:13:27.808Z,2.76
2023-02-12T00:14:29.655Z,2.75
2023-02-12T00:15:32.442Z,2.75
2023-02-12T00:16:34.456Z,2.74
2023-02-12T00:17:37.561Z,2.74
2023-02-12T00:18:39.389Z,2.73
2023-02-12T00:19:42.595Z,2.73
2023-02-12T00:20:44.411Z,2.73
2023-02-12T00:21:47.158Z,2.72
2023-02-12T00:22:49.051Z,2.73
2023-02-12T00:23:51.848Z,2.74
2023-02-12T00:24:55.186Z,2.73
2023-02-12T00:25:58.150Z,2.73
2023-02-12T00:26:59.892Z,2.72
2023-02-12T00:28:02.792Z,2.73
2023-02-12T00:29:04.696Z,2.74
2023-02-12T00:30:08.631Z,2.75
2023-02-12T00:31:12.253Z,2.74
2023-02-12T00:32:19.366Z,2.74
2023-02-12T00:33:21.271Z,2.72
2023-02-12T00:34:24.010Z,2.72
2023-02-12T00:35:25.949Z,2.71
2023-02-12T00:36:31.378Z,2.73
2023-02-12T00:37:33.994Z,2.70
2023-02-12T00:38:37.415Z,2.72
2023-02-12T00:39:39.221Z,2.71
2023-02-12T00:40:43.365Z,2.72
2023-02-12T00:41:45.220Z,2.73
2023-02-12T00:42:48.390Z,2.75
2023-02-12T00:43:50.238Z,2.77
2023-02-12T00:44:53.006Z,2.78
2023-02-12T00:45:55.221Z,2.79
2023-02-12T00:46:58.303Z,2.79
2023-02-12T00:48:00.132Z,2.79
2023-02-12T00:49:03.252Z,2.80
2023-02-12T00:50:06.154Z,2.81
2023-02-12T00:51:09.833Z,2.82
2023-02-12T00:52:11.609Z,2.83
2023-02-12T00:53:14.432Z,2.82
2023-02-12T00:54:16.444Z,2.83
2023-02-12T00:55:19.462Z,2.84
2023-02-12T00:56:22.914Z,2.85
2023-02-12T00:57:26.023Z,2.85
2023-02-12T00:58:28.010Z,2.84
2023-02-12T00:59:31.418Z,2.84
2023-02-12T01:00:33.486Z,2.84
2023-02-12T01:01:36.353Z,2.84
2023-02-12T01:02:38.815Z,2.85
2023-02-12T01:03:43.460Z,2.83
2023-02-12T01:04:45.323Z,2.85
2023-02-12T01:05:48.341Z,2.85
2023-02-12T01:06:50.191Z,2.84
2023-02-12T01:07:53.655Z,2.85
2023-02-12T01:08:55.417Z,2.85
2023-02-12T01:09:58.457Z,2.85
2023-02-12T01:11:02.346Z,2.85
2023-02-12T01:12:07.305Z,2.85
2023-02-12T01:13:10.986Z,2.86
2023-02-12T01:14:13.767Z,2.85
2023-02-12T01:15:15.974Z,2.85
2023-02-12T01:16:37.605Z,2.83
2023-02-12T01:17:39.434Z,2.81
2023-02-12T01:18:42.266Z,2.80
2023-02-12T01:19:44.052Z,2.78
2023-02-12T01:20:46.946Z,2.78
2023-02-12T01:21:48.725Z,2.78
2023-02-12T01:22:51.709Z,2.76
2023-02-12T01:23:53.739Z,2.77
2023-02-12T01:24:56.460Z,2.76
2023-02-12T01:25:59.026Z,2.77
2023-02-12T01:27:01.837Z,2.76
2023-02-12T01:28:05.174Z,2.77
2023-02-12T01:29:08.657Z,2.77
2023-02-12T01:30:12.783Z,2.76
2023-02-12T01:31:18.594Z,2.77
2023-02-12T01:32:20.466Z,2.77
2023-02-12T01:33:23.356Z,2.77
2023-02-12T01:34:25.154Z,2.78
2023-02-12T01:35:28.594Z,2.78
2023-02-12T01:36:31.818Z,2.79
2023-02-12T01:37:36.846Z,2.80
2023-02-12T01:38:38.990Z,2.80
2023-02-12T01:39:41.938Z,2.81
2023-02-12T01:40:43.713Z,2.81
2023-02-12T01:41:47.012Z,2.81
2023-02-12T01:42:49.014Z,2.83
2023-02-12T01:44:12.210Z,2.82
2023-02-12T01:45:46.048Z,2.79
2023-02-12T01:46:51.051Z,2.76
2023-02-12T01:47:53.253Z,2.74
2023-02-12T01:48:56.557Z,2.74
2023-02-12T01:49:58.407Z,2.74
2023-02-12T01:51:03.776Z,2.73
2023-02-12T01:52:08.581Z,2.73
2023-02-12T01:53:13.257Z,2.74
2023-02-12T01:54:18.607Z,2.74
2023-02-12T01:55:20.702Z,2.75
2023-02-12T01:56:24.394Z,2.76
2023-02-12T01:57:27.356Z,2.78
2023-02-12T01:58:32.136Z,2.78
2023-02-12T01:59:36.741Z,2.78
2023-02-12T02:00:40.855Z,2.78
2023-02-12T02:01:44.582Z,2.81
2023-02-12T02:02:50.241Z,2.81
2023-02-12T02:03:55.731Z,2.82
2023-02-12T02:05:00.077Z,2.81
2023-02-12T02:06:08.529Z,2.82
2023-02-12T02:07:12.032Z,2.83
2023-02-12T02:08:15.198Z,2.83
2023-02-12T02:09:19.120Z,2.87
2023-02-12T02:10:20.962Z,2.88
2023-02-12T02:11:43.498Z,2.89
2023-02-12T02:13:04.258Z,2.88
2023-02-12T02:14:25.603Z,2.88
2023-02-12T02:15:31.644Z,2.88
2023-02-12T02:16:35.615Z,2.89
2023-02-12T02:17:51.156Z,2.89
2023-02-12T02:18:56.265Z,2.90
2023-02-12T02:20:26.731Z,2.92
2023-02-12T02:21:50.887Z,2.92
2023-02-12T02:23:03.617Z,2.92
2023-02-12T02:24:17.049Z,2.92
2023-02-12T02:25:37.533Z,2.92
2023-02-12T02:27:07.955Z,2.94
2023-02-12T02:28:23.900Z,2.95
2023-02-12T02:29:54.655Z,2.95
2023-02-12T02:31:01.006Z,2.95
2023-02-12T02:32:06.713Z,2.96
2023-02-12T02:33:16.309Z,2.97
2023-02-12T02:34:21.349Z,2.97
2023-02-12T02:35:29.282Z,2.99
2023-02-12T02:36:36.359Z,3.00
2023-02-12T02:37:42.468Z,3.01
2023-02-12T02:38:48.557Z,3.00
2023-02-12T02:39:54.929Z,3.00
2023-02-12T02:41:02.747Z,2.99
2023-02-12T02:42:10.464Z,2.99
2023-02-12T02:43:16.604Z,2.99
2023-02-12T02:44:25.396Z,2.99
2023-02-12T02:45:30.717Z,2.98
2023-02-12T02:46:37.602Z,2.99
2023-02-12T02:47:43.209Z,2.98
2023-02-12T02:48:49.353Z,2.99
2023-02-12T02:49:55.146Z,2.99
2023-02-12T02:51:00.960Z,3.00
2023-02-12T02:52:06.897Z,3.01
2023-02-12T02:53:12.335Z,3.01
2023-02-12T02:54:16.956Z,3.02
2023-02-12T02:55:53.507Z,3.01
2023-02-12T02:57:00.805Z,3.01
2023-02-12T02:58:07.686Z,3.03
2023-02-12T02:59:12.402Z,3.02
2023-02-12T03:00:20.070Z,3.03
2023-02-12T03:01:23.921Z,3.01
2023-02-12T03:02:30.615Z,3.02
2023-02-12T03:03:34.974Z,3.01
2023-02-12T03:04:40.578Z,3.01
2023-02-12T03:05:44.323Z,3.01
2023-02-12T03:06:49.546Z,3.00
2023-02-12T03:07:53.441Z,3.00
2023-02-12T03:08:58.219Z,3.01
2023-02-12T03:10:02.198Z,3.00
2023-02-12T03:11:09.253Z,3.00
2023-02-12T03:12:14.385Z,2.98
2023-02-12T03:13:21.690Z,2.97
2023-02-12T03:14:26.012Z,2.95
2023-02-12T03:15:34.326Z,2.97
2023-02-12T03:16:39.930Z,2.96
2023-02-12T03:17:45.630Z,2.96
2023-02-12T03:18:51.576Z,2.97
2023-02-12T03:19:56.968Z,2.94
2023-02-12T03:21:01.490Z,2.96
2023-02-12T03:22:07.299Z,2.95
2023-02-12T03:23:13.162Z,2.94
2023-02-12T03:24:22.179Z,2.92
2023-02-12T03:25:26.876Z,2.92
2023-02-12T03:26:37.590Z,2.91
2023-02-12T03:27:42.023Z,2.92
2023-02-12T03:28:45.164Z,2.92
2023-02-12T03:29:47.393Z,2.93
2023-02-12T03:30:53.767Z,2.93
2023-02-12T03:32:00.728Z,2.94
2023-02-12T03:33:10.521Z,2.94
2023-02-12T03:34:18.822Z,2.92
2023-02-12T03:35:23.585Z,2.92
2023-02-12T03:36:34.547Z,2.92
2023-02-12T03:37:40.293Z,2.92
2023-02-12T03:38:45.777Z,2.94
2023-02-12T03:39:54.676Z,2.95
2023-02-12T03:40:59.877Z,2.94
2023-02-12T03:42:05.644Z,2.95
2023-02-12T03:43:30.677Z,2.93
2023-02-12T03:44:45.406Z,2.92
2023-02-12T03:45:51.372Z,2.90
2023-02-12T03:47:00.990Z,2.89
2023-02-12T03:48:09.155Z,2.89
2023-02-12T03:49:16.500Z,2.88
2023-02-12T03:50:22.034Z,2.88
2023-02-12T03:51:29.713Z,2.86
2023-02-12T03:52:31.528Z,2.87
2023-02-12T03:53:34.329Z,2.86
2023-02-12T03:54:37.110Z,2.86
2023-02-12T03:55:43.737Z,2.87
2023-02-12T03:56:52.086Z,2.88
2023-02-12T03:58:00.746Z,2.88
2023-02-12T03:59:03.881Z,2.87
2023-02-12T04:00:09.742Z,2.86
2023-02-12T04:01:17.494Z,2.84
2023-02-12T04:02:20.596Z,2.84
2023-02-12T04:03:24.695Z,2.84
2023-02-12T04:04:28.182Z,2.84
2023-02-12T04:05:30.058Z,2.84
2023-02-12T04:06:32.818Z,2.83
2023-02-12T04:07:35.378Z,2.80
2023-02-12T04:08:38.114Z,2.78
2023-02-12T04:09:40.043Z,2.77
2023-02-12T04:10:53.836Z,2.74
2023-02-12T04:12:06.190Z,2.70
2023-02-12T04:13:16.979Z,2.68
2023-02-12T04:14:25.237Z,2.65
2023-02-12T04:15:40.161Z,2.64
2023-02-12T04:16:46.212Z,2.63
2023-02-12T04:17:54.881Z,2.61
2023-02-12T04:18:58.226Z,2.60
2023-02-12T04:20:09.512Z,2.59
2023-02-12T04:21:17.185Z,2.58
2023-02-12T04:22:31.140Z,2.57
2023-02-12T04:23:42.261Z,2.57
2023-02-12T04:24:49.108Z,2.58
2023-02-12T04:25:56.853Z,2.57
2023-02-12T04:27:04.989Z,2.58
2023-02-12T04:28:13.287Z,2.58
2023-02-12T04:29:20.488Z,2.58
2023-02-12T04:30:25.084Z,2.58
2023-02-12T04:31:31.831Z,2.58
2023-02-12T04:32:38.775Z,2.58
2023-02-12T04:33:46.017Z,2.57
2023-02-12T04:34:58.954Z,2.58
2023-02-12T04:36:02.482Z,2.59
2023-02-12T04:37:07.885Z,2.59
2023-02-12T04:38:13.298Z,2.60
2023-02-12T04:39:20.308Z,2.60
2023-02-12T04:40:22.584Z,2.59
2023-02-12T04:41:26.448Z,2.58
2023-02-12T04:42:28.266Z,2.59
2023-02-12T04:43:36.501Z,2.59
2023-02-12T04:44:39.974Z,2.58
2023-02-12T04:45:42.987Z,2.57
2023-02-12T04:46:44.810Z,2.57
2023-02-12T04:47:47.961Z,2.58
2023-02-12T04:48:52.547Z,2.57
2023-02-12T04:49:55.336Z,2.57
2023-02-12T04:50:58.537Z,2.58
2023-02-12T04:52:01.360Z,2.59
2023-02-12T04:53:03.109Z,2.59
2023-02-12T04:54:06.083Z,2.60
2023-02-12T04:55:09.290Z,2.60
2023-02-12T04:56:11.528Z,2.61
2023-02-12T04:57:14.347Z,2.59
2023-02-12T04:58:16.524Z,2.59
2023-02-12T04:59:19.268Z,2.60
2023-02-12T05:00:21.665Z,2.60
2023-02-12T05:01:24.699Z,2.61
2023-02-12T05:02:26.582Z,2.62
2023-02-12T05:03:29.385Z,2.63
2023-02-12T05:04:31.149Z,2.62
2023-02-12T05:05:33.965Z,2.61
2023-02-12T05:06:38.068Z,2.59
2023-02-12T05:07:40.827Z,2.59
2023-02-12T05:08:42.615Z,2.57
2023-02-12T05:09:45.444Z,2.56
2023-02-12T05:10:47.262Z,2.55
2023-02-12T05:11:50.234Z,2.57
2023-02-12T05:12:52.391Z,2.57
2023-02-12T05:13:55.463Z,2.57
2023-02-12T05:14:57.466Z,2.57
2023-02-12T05:16:00.912Z,2.56
2023-02-12T05:17:02.804Z,2.53
2023-02-12T05:18:05.936Z,2.50
2023-02-12T05:19:09.434Z,2.49
2023-02-12T05:20:12.984Z,2.45
2023-02-12T05:21:14.828Z,2.40
2023-02-12T05:22:19.074Z,2.39
2023-02-12T05:23:20.821Z,2.37
2023-02-12T05:24:23.566Z,2.37
2023-02-12T05:25:25.404Z,2.35
2023-02-12T05:26:28.151Z,2.34
2023-02-12T05:27:29.914Z,2.33
2023-02-12T05:28:32.850Z,2.34
2023-02-12T05:29:34.729Z,2.33
2023-02-12T05:30:37.532Z,2.33
2023-02-12T05:31:39.511Z,2.31
2023-02-12T05:32:42.346Z,2.32
2023-02-12T05:33:44.567Z,2.30
2023-02-12T05:34:47.387Z,2.28
2023-02-12T05:35:49.885Z,2.26
2023-02-12T05:36:52.729Z,2.22
2023-02-12T05:37:55.929Z,2.20
2023-02-12T05:38:59.756Z,2.16
2023-02-12T05:40:01.580Z,2.08
2023-02-12T05:41:05.779Z,2.05
2023-02-12T05:42:07.625Z,2.00
2023-02-12T05:43:10.390Z,1.96
2023-02-12T05:44:13.747Z,1.91
2023-02-12T05:45:16.614Z,1.86
2023-02-12T05:46:19.761Z,1.81
2023-02-12T05:47:23.079Z,1.76
2023-02-12T05:48:24.913Z,1.74
2023-02-12T05:49:27.779Z,1.71
2023-02-12T05:50:29.672Z,1.67
2023-02-12T05:51:36.301Z,1.61
2023-02-12T05:52:38.090Z,1.55
2023-02-12T05:53:42.925Z,1.51
2023-02-12T05:54:44.771Z,1.44
2023-02-12T05:55:47.597Z,1.41
2023-02-12T05:56:50.425Z,1.37
2023-02-12T05:57:52.344Z,1.32
2023-02-12T05:58:56.715Z,1.29
2023-02-12T05:59:59.489Z,1.25
2023-02-12T06:01:01.313Z,1.20
2023-02-12T06:02:04.918Z,1.19
2023-02-12T06:03:06.890Z,1.14
2023-02-12T06:04:14.892Z,1.09
2023-02-12T06:05:16.911Z,1.04
2023-02-12T06:06:19.988Z,1.00
2023-02-12T06:07:22.974Z,0.93
2023-02-12T06:08:26.150Z,0.89
2023-02-12T06:09:30.697Z,0.80
2023-02-12T06:10:32.455Z,0.72
2023-02-12T06:11:35.222Z,0.67
2023-02-12T06:12:37.995Z,0.61
2023-02-12T06:13:40.208Z,0.54
2023-02-12T06:14:43.249Z,0.49
2023-02-12T06:15:45.166Z,0.41
2023-02-12T06:16:49.628Z,0.35
2023-02-12T06:17:51.449Z,0.28
2023-02-12T06:18:55.567Z,0.23
2023-02-12T06:19:58.295Z,0.16
2023-02-12T06:21:00.073Z,0.11
2023-02-12T06:22:21.240Z,0.07
2023-02-12T06:23:23.912Z,0.05
2023-02-12T06:24:27.078Z,0.06
2023-02-12T06:25:30.740Z,0.11
2023-02-12T06:26:33.764Z,0.17
2023-02-12T06:27:35.570Z,0.22
2023-02-12T06:28:38.631Z,0.29
2023-02-12T06:29:41.490Z,0.40
2023-02-12T06:30:43.482Z,0.49
2023-02-12T06:31:46.563Z,0.59
2023-02-12T06:32:49.493Z,0.72
2023-02-12T06:33:53.208Z,0.82
2023-02-12T06:34:55.188Z,0.96
2023-02-12T06:35:58.179Z,1.08
2023-02-12T06:37:00.139Z,1.22
2023-02-12T06:38:03.186Z,1.34
2023-02-12T06:39:05.111Z,1.48
2023-02-12T06:40:09.256Z,1.60
2023-02-12T06:41:12.527Z,1.66
2023-02-12T06:42:15.413Z,1.72
2023-02-12T06:43:17.366Z,1.80
2023-02-12T06:44:20.167Z,1.86
2023-02-12T06:45:22.150Z,1.94
2023-02-12T06:46:24.920Z,1.96
2023-02-12T06:47:27.678Z,2.01
2023-02-12T06:48:30.872Z,2.05
2023-02-12T06:49:33.670Z,2.03
2023-02-12T06:50:35.577Z,1.98
2023-02-12T06:51:40.339Z,2.03
2023-02-12T06:52:42.188Z,2.06
2023-02-12T06:53:45.982Z,2.06
2023-02-12T06:54:47.795Z,2.10
2023-02-12T06:55:50.782Z,2.12
2023-02-12T06:56:54.385Z,2.18
2023-02-12T06:57:57.097Z,2.24
2023-02-12T06:59:01.046Z,2.31
2023-02-12T07:00:03.936Z,2.37
2023-02-12T07:01:13.324Z,2.44
2023-02-12T07:02:16.398Z,2.47
2023-02-12T07:03:18.204Z,2.51
2023-02-12T07:04:21.595Z,2.57
2023-02-12T07:05:24.558Z,2.59
2023-02-12T07:06:28.036Z,2.60
2023-02-12T07:07:29.907Z,2.65
2023-02-12T07:08:32.714Z,2.69
2023-02-12T07:09:34.595Z,2.64
2023-02-12T07:10:37.327Z,2.59
2023-02-12T07:11:39.269Z,2.52
2023-02-12T07:12:43.473Z,2.53
2023-02-12T07:13:45.611Z,2.50
2023-02-12T07:14:48.375Z,2.50
2023-02-12T07:15:50.338Z,2.50
2023-02-12T07:16:55.667Z,2.54
2023-02-12T07:17:58.722Z,2.60
2023-02-12T07:19:01.909Z,2.61
2023-02-12T07:20:03.839Z,2.63
2023-02-12T07:21:07.715Z,2.68
2023-02-12T07:22:09.646Z,2.75
2023-02-12T07:23:12.434Z,2.83
2023-02-12T07:24:14.855Z,2.91
2023-02-12T07:25:36.328Z,2.96
2023-02-12T07:26:39.811Z,3.00
2023-02-12T07:27:43.946Z,3.00
2023-02-12T07:28:46.124Z,3.00
2023-02-12T07:29:48.844Z,2.96
2023-02-12T07:30:50.936Z,2.85
2023-02-12T07:31:53.827Z,2.74
2023-02-12T07:32:55.838Z,2.64
2023-02-12T07:34:00.247Z,2.58
2023-02-12T07:35:02.123Z,2.48
2023-02-12T07:36:07.133Z,2.38
2023-02-12T07:37:09.913Z,2.29
2023-02-12T07:38:12.040Z,2.23
2023-02-12T07:39:14.902Z,2.20
2023-02-12T07:40:16.872Z,2.16
2023-02-12T07:41:21.508Z,2.14
2023-02-12T07:42:23.304Z,2.12
2023-02-12T07:43:27.980Z,2.12
2023-02-12T07:44:31.367Z,2.12
2023-02-12T07:45:34.181Z,2.20
2023-02-12T07:46:38.046Z,2.27
2023-02-12T07:47:41.172Z,2.33
2023-02-12T07:48:43.117Z,2.36
2023-02-12T07:49:45.847Z,2.39
2023-02-12T07:50:47.667Z,2.46
2023-02-12T07:51:51.074Z,2.49
2023-02-12T07:52:52.854Z,2.49
2023-02-12T07:53:56.054Z,2.52
2023-02-12T07:54:57.842Z,2.57
2023-02-12T07:56:08.553Z,2.67
2023-02-12T07:57:11.350Z,2.79
2023-02-12T07:58:13.168Z,2.87
2023-02-12T07:59:19.718Z,2.92
2023-02-12T08:00:41.051Z,2.90
2023-02-12T08:01:44.092Z,2.88
2023-02-12T08:02:52.670Z,2.83
2023-02-12T08:03:56.189Z,2.78
2023-02-12T08:04:59.719Z,2.72
2023-02-12T08:06:07.457Z,2.62
2023-02-12T08:07:10.299Z,2.60
2023-02-12T08:08:12.069Z,2.57
2023-02-12T08:09:17.296Z,2.57
2023-02-12T08:10:22.295Z,2.54
2023-02-12T08:11:25.398Z,2.54
2023-02-12T08:12:28.137Z,2.53
2023-02-12T08:13:30.220Z,2.52
2023-02-12T08:14:34.288Z,2.49
2023-02-12T08:15:36.086Z,2.46
2023-02-12T08:16:40.393Z,2.44
2023-02-12T08:17:43.506Z,2.44
2023-02-12T08:18:46.826Z,2.45
2023-02-12T08:19:48.743Z,2.43
2023-02-12T08:20:51.553Z,2.42
2023-02-12T08:21:55.400Z,2.40
2023-02-12T08:22:58.198Z,2.37
2023-02-12T08:24:01.255Z,2.35
2023-02-12T08:25:04.051Z,2.31
2023-02-12T08:26:11.103Z,2.27
2023-02-12T08:27:13.917Z,2.23
2023-02-12T08:28:15.723Z,2.20
2023-02-12T08:29:38.497Z,2.16
2023-02-12T08:30:40.639Z,2.16
2023-02-12T08:31:44.840Z,2.17
2023-02-12T08:32:49.256Z,2.18
2023-02-12T08:33:53.379Z,2.20
2023-02-12T08:34:55.358Z,2.21
2023-02-12T08:36:03.669Z,2.26
2023-02-12T08:37:07.481Z,2.26
2023-02-12T08:38:09.247Z,2.29
2023-02-12T08:39:31.760Z,2.28
2023-02-12T08:40:33.951Z,2.29
2023-02-12T08:41:37.238Z,2.32
2023-02-12T08:42:39.021Z,2.35
2023-02-12T08:43:42.502Z,2.39
2023-02-12T08:44:45.588Z,2.43
2023-02-12T08:45:48.421Z,2.46
2023-02-12T08:46:52.996Z,2.50
2023-02-12T08:47:55.243Z,2.53
2023-02-12T08:49:00.094Z,2.56
2023-02-12T08:50:02.933Z,2.60
2023-02-12T08:51:06.751Z,2.62
2023-02-12T08:52:09.512Z,2.66
2023-02-12T08:53:11.464Z,2.72
2023-02-12T08:54:16.791Z,2.78
2023-02-12T08:55:19.553Z,2.84
2023-02-12T08:56:21.602Z,2.92
2023-02-12T08:57:24.392Z,2.98
2023-02-12T08:58:26.313Z,3.00
2023-02-12T08:59:29.816Z,3.01
2023-02-12T09:00:32.968Z,3.00
2023-02-12T09:01:38.535Z,2.99
2023-02-12T09:02:40.503Z,2.94
2023-02-12T09:03:43.949Z,2.90
2023-02-12T09:04:45.704Z,2.85
2023-02-12T09:06:08.917Z,2.79
2023-02-12T09:07:11.645Z,2.72
2023-02-12T09:08:13.409Z,2.66
2023-02-12T09:09:16.597Z,2.62
2023-02-12T09:10:18.525Z,2.62
2023-02-12T09:11:26.721Z,2.60
2023-02-12T09:12:29.545Z,2.59
2023-02-12T09:13:31.366Z,2.55
2023-02-12T09:14:34.150Z,2.50
2023-02-12T09:15:38.348Z,2.43
2023-02-12T09:16:41.366Z,2.38
2023-02-12T09:17:43.690Z,2.35
2023-02-12T09:18:46.555Z,2.34
2023-02-12T09:19:49.544Z,2.34
2023-02-12T09:20:51.295Z,2.38
2023-02-12T09:21:56.788Z,2.41
2023-02-12T09:22:59.104Z,2.46
2023-02-12T09:24:03.442Z,2.51
2023-02-12T09:25:06.509Z,2.52
2023-02-12T09:26:10.811Z,2.57
2023-02-12T09:27:13.561Z,2.60
2023-02-12T09:28:15.531Z,2.63
2023-02-12T09:29:18.351Z,2.66
2023-02-12T09:30:20.281Z,2.72
2023-02-12T09:31:26.980Z,2.77
2023-02-12T09:32:29.460Z,2.82
2023-02-12T09:33:32.213Z,2.90
2023-02-12T09:34:36.018Z,2.98
2023-02-12T09:35:38.509Z,3.08
2023-02-12T09:36:41.236Z,3.17
2023-02-12T09:37:44.834Z,3.29
2023-02-12T09:38:47.665Z,3.42
2023-02-12T09:39:51.315Z,3.52
2023-02-12T09:41:18.763Z,3.59
2023-02-12T09:42:39.044Z,3.62
2023-02-12T09:43:45.524Z,3.65
2023-02-12T09:44:51.152Z,3.68
2023-02-12T09:45:57.796Z,3.70
2023-02-12T09:47:03.707Z,3.75
2023-02-12T09:48:18.104Z,3.79
2023-02-12T09:49:39.232Z,3.79
2023-02-12T09:50:47.185Z,3.70
2023-02-12T09:51:51.576Z,3.61
2023-02-12T09:52:57.210Z,3.54
2023-02-12T09:54:03.400Z,3.47
2023-02-12T09:55:06.643Z,3.39
2023-02-12T09:56:18.367Z,3.33
2023-02-12T09:57:35.730Z,3.29
2023-02-12T09:58:43.771Z,3.26
2023-02-12T09:59:50.043Z,3.23
2023-02-12T10:00:53.105Z,3.20
2023-02-12T10:01:54.914Z,3.19
2023-02-12T10:03:04.970Z,3.18
2023-02-12T10:04:08.781Z,3.16
2023-02-12T10:05:16.956Z,3.14
2023-02-12T10:06:20.485Z,3.11
2023-02-12T10:07:34.152Z,3.07
2023-02-12T10:08:46.921Z,3.04
2023-02-12T10:10:06.997Z,3.04
2023-02-12T10:11:33.957Z,3.06
2023-02-12T10:12:41.105Z,3.11
2023-02-12T10:13:47.470Z,3.17
2023-02-12T10:15:14.705Z,3.26
2023-02-12T10:16:27.670Z,3.28
2023-02-12T10:17:37.340Z,3.35
2023-02-12T10:18:53.665Z,3.40
2023-02-12T10:20:17.202Z,3.46
2023-02-12T10:21:32.329Z,3.51
2023-02-12T10:22:56.141Z,3.51
2023-02-12T10:24:16.464Z,3.55
2023-02-12T10:25:25.301Z,3.62
2023-02-12T10:26:31.205Z,3.69
2023-02-12T10:27:39.996Z,3.76
2023-02-12T10:28:42.525Z,3.83
2023-02-12T10:29:47.427Z,3.90
2023-02-12T10:30:52.336Z,3.91
2023-02-12T10:33:03.848Z,3.99
2023-02-12T10:34:16.651Z,4.05
2023-02-12T10:35:20.228Z,4.09
2023-02-12T10:36:32.455Z,4.10
2023-02-12T10:37:37.928Z,4.10
2023-02-12T10:38:45.246Z,4.12
2023-02-12T10:39:52.103Z,4.13
2023-02-12T10:40:57.961Z,4.11
2023-02-12T10:42:04.230Z,4.10
2023-02-12T10:43:09.089Z,4.12
2023-02-12T10:44:12.885Z,4.18
2023-02-12T10:45:16.561Z,4.22
2023-02-12T10:46:19.322Z,4.24
2023-02-12T10:47:22.569Z,4.22
2023-02-12T10:48:28.466Z,4.23
2023-02-12T10:49:33.763Z,4.19
2023-02-12T10:51:04.398Z,4.23
2023-02-12T10:52:14.332Z,4.22
2023-02-12T10:53:20.854Z,4.25
2023-02-12T10:54:34.380Z,4.28
2023-02-12T10:55:36.754Z,4.30
2023-02-12T10:56:39.595Z,4.30
2023-02-12T10:57:42.402Z,4.32
2023-02-12T10:58:53.382Z,4.33
2023-02-12T10:59:58.157Z,4.33
2023-02-12T11:01:00.400Z,4.33
2023-02-12T11:02:04.828Z,4.33
2023-02-12T11:03:21.203Z,4.31
2023-02-12T11:04:27.048Z,4.28
2023-02-12T11:05:34.798Z,4.22
2023-02-12T11:06:38.953Z,4.16
2023-02-12T11:07:47.902Z,4.07
2023-02-12T11:08:50.977Z,3.99
2023-02-12T11:09:54.738Z,3.95
2023-02-12T11:11:04.442Z,3.91
2023-02-12T11:12:35.692Z,3.85
2023-02-12T11:13:41.078Z,3.79
2023-02-12T11:14:49.098Z,3.70
2023-02-12T11:15:52.610Z,3.63
2023-02-12T11:16:57.615Z,3.58
2023-02-12T11:18:03.726Z,3.55
2023-02-12T11:19:09.777Z,3.50
2023-02-12T11:20:24.705Z,3.43
2023-02-12T11:21:28.961Z,3.39
2023-02-12T11:22:30.990Z,3.38
2023-02-12T11:23:35.397Z,3.37
2023-02-12T11:24:37.744Z,3.38
2023-02-12T11:25:57.349Z,3.42
2023-02-12T11:27:24.040Z,3.43
2023-02-12T11:28:26.228Z,3.43
2023-02-12T11:29:29.158Z,3.42
2023-02-12T11:30:31.610Z,3.41
2023-02-12T11:31:36.913Z,3.42
2023-02-12T11:32:39.139Z,3.47
2023-02-12T11:33:42.568Z,3.50
2023-02-12T11:34:44.351Z,3.54
2023-02-12T11:35:51.837Z,3.54
2023-02-12T11:36:56.283Z,3.51
2023-02-12T11:37:59.190Z,3.52
2023-02-12T11:39:02.047Z,3.57
2023-02-12T11:40:04.650Z,3.62
2023-02-12T11:41:26.157Z,3.66
2023-02-12T11:42:31.034Z,3.69
2023-02-12T11:43:37.285Z,3.74
2023-02-12T11:44:41.551Z,3.74
2023-02-12T11:45:45.453Z,3.75
2023-02-12T11:46:49.672Z,3.77
2023-02-12T11:47:51.800Z,3.78
2023-02-12T11:48:55.914Z,3.82
2023-02-12T11:50:04.938Z,3.84
2023-02-12T11:51:10.238Z,3.84
2023-02-12T11:52:20.451Z,3.85
2023-02-12T11:53:25.703Z,3.76
2023-02-12T11:54:29.687Z,3.74
2023-02-12T11:55:34.058Z,3.72
2023-02-12T11:56:44.213Z,3.74
2023-02-12T11:57:48.884Z,3.73
2023-02-12T11:58:52.984Z,3.73
2023-02-12T11:59:56.415Z,3.74
2023-02-12T12:01:06.301Z,3.78
2023-02-12T12:02:18.878Z,3.83
2023-02-12T12:03:25.208Z,3.86
2023-02-12T12:04:29.048Z,3.90
2023-02-12T12:05:36.850Z,3.94
2023-02-12T12:06:42.845Z,3.97
2023-02-12T12:07:52.262Z,4.04
2023-02-12T12:08:57.969Z,4.07
2023-02-12T12:10:22.288Z,4.12
2023-02-12T12:11:28.136Z,4.17
2023-02-12T12:12:34.931Z,4.21
2023-02-12T12:13:41.921Z,4.22
2023-02-12T12:15:05.594Z,4.25
2023-02-12T12:16:29.956Z,4.30
2023-02-12T12:17:57.314Z,4.34
2023-02-12T12:19:21.808Z,4.38
2023-02-12T12:20:26.867Z,4.41
2023-02-12T12:21:34.362Z,4.43
2023-02-12T12:22:42.655Z,4.47
2023-02-12T12:23:50.069Z,4.49
2023-02-12T12:24:57.502Z,4.54
2023-02-12T12:26:02.437Z,4.59
2023-02-12T12:27:25.087Z,4.63
2023-02-12T12:28:30.812Z,4.69
2023-02-12T12:29:45.814Z,4.69
2023-02-12T12:31:04.080Z,4.68
2023-02-12T12:32:07.479Z,4.63
2023-02-12T12:33:16.272Z,4.64
2023-02-12T12:34:20.601Z,4.64
2023-02-12T12:35:27.275Z,4.62
2023-02-12T12:37:08.820Z,4.59
2023-02-12T12:38:20.325Z,4.58
2023-02-12T12:39:30.200Z,4.59
2023-02-12T12:40:46.002Z,4.62
2023-02-12T12:42:13.494Z,4.63
2023-02-12T12:43:22.760Z,4.67
2023-02-12T12:44:34.846Z,4.74
2023-02-12T12:46:16.183Z,4.81
2023-02-12T12:47:26.267Z,4.85
2023-02-12T12:48:42.212Z,4.90
2023-02-12T12:49:52.187Z,4.94
2023-02-12T12:51:08.045Z,5.08
2023-02-12T12:52:24.742Z,5.12
2023-02-12T12:53:39.150Z,5.14
2023-02-12T12:54:54.565Z,5.19
2023-02-12T12:56:12.002Z,5.24
2023-02-12T12:57:21.234Z,5.22
2023-02-12T12:58:30.241Z,5.16
2023-02-12T12:59:52.805Z,5.08
2023-02-12T13:01:06.751Z,5.02
2023-02-12T13:02:34.741Z,4.99
2023-02-12T13:04:05.510Z,5.03
2023-02-12T13:05:25.154Z,5.31
2023-02-12T13:06:47.970Z,5.60
2023-02-12T13:08:00.106Z,6.00
2023-02-12T13:09:21.986Z,6.35
2023-02-12T13:10:33.077Z,6.56
2023-02-12T13:11:39.789Z,6.73
2023-02-12T13:12:59.824Z,6.95
2023-02-12T13:14:08.428Z,7.13
2023-02-12T13:15:19.612Z,7.26
2023-02-12T13:16:25.414Z,7.42
2023-02-12T13:17:31.968Z,7.51
2023-02-12T13:18:45.628Z,7.48
2023-02-12T13:19:56.743Z,7.38
2023-02-12T13:21:05.309Z,7.22
2023-02-12T13:22:20.199Z,7.08
2023-02-12T13:23:29.658Z,6.92
2023-02-12T13:24:36.614Z,6.84
2023-02-12T13:25:46.760Z,6.75
2023-02-12T13:26:53.696Z,6.64
2023-02-12T13:27:57.069Z,6.49
2023-02-12T13:29:02.476Z,6.32
2023-02-12T13:30:07.192Z,6.17
2023-02-12T13:31:31.810Z,6.03
2023-02-12T13:32:40.605Z,5.92
2023-02-12T13:33:44.015Z,5.91
2023-02-12T13:34:46.943Z,5.91
2023-02-12T13:35:53.607Z,5.84
2023-02-12T13:36:56.093Z,5.77
2023-02-12T13:38:00.238Z,5.66
2023-02-12T13:39:27.626Z,5.44
2023-02-12T13:40:31.714Z,5.28
2023-02-12T13:41:35.454Z,5.11
2023-02-12T13:42:46.425Z,4.98
2023-02-12T13:43:59.884Z,4.82
2023-02-12T13:45:13.617Z,4.63
2023-02-12T13:46:20.478Z,4.48
2023-02-12T13:47:31.225Z,4.35
2023-02-12T13:48:44.657Z,4.23
2023-02-12T13:49:50.152Z,4.13
2023-02-12T13:51:01.149Z,4.05
2023-02-12T13:52:07.748Z,3.95
2023-02-12T13:53:19.468Z,3.99
2023-02-12T13:54:31.133Z,3.99
2023-02-12T13:55:36.412Z,4.04
2023-02-12T13:56:41.920Z,4.04
2023-02-12T13:57:45.164Z,4.08
2023-02-12T13:58:51.451Z,4.10
2023-02-12T13:59:54.769Z,4.11
2023-02-12T14:00:58.740Z,4.07
2023-02-12T14:02:02.509Z,4.04
2023-02-12T14:03:08.930Z,4.00
2023-02-12T14:04:26.686Z,4.09
2023-02-12T14:05:32.829Z,4.27
2023-02-12T14:06:35.342Z,4.44
2023-02-12T14:07:42.888Z,4.59
2023-02-12T14:08:48.164Z,4.70
2023-02-12T14:10:03.247Z,4.80
2023-02-12T14:11:07.826Z,4.81
2023-02-12T14:12:15.284Z,4.83
2023-02-12T14:13:21.364Z,4.83
2023-02-12T14:14:28.669Z,4.90
2023-02-12T14:15:35.123Z,4.97
2023-02-12T14:16:43.483Z,4.97
2023-02-12T14:17:54.268Z,4.90
2023-02-12T14:19:30.600Z,4.82
2023-02-12T14:20:34.281Z,4.65
2023-02-12T14:21:36.762Z,4.56
2023-02-12T14:23:00.674Z,4.47
2023-02-12T14:24:40.144Z,4.42
2023-02-12T14:25:45.315Z,4.33
2023-02-12T14:26:47.751Z,4.32
2023-02-12T14:27:53.721Z,4.31
2023-02-12T14:28:58.592Z,4.30
2023-02-12T14:30:20.101Z,4.29
2023-02-12T14:31:34.576Z,4.25
2023-02-12T14:33:11.406Z,4.24
2023-02-12T14:34:48.398Z,4.15
2023-02-12T14:36:16.211Z,4.10
2023-02-12T14:37:36.539Z,4.04
2023-02-12T14:39:04.115Z,3.99
2023-02-12T14:40:31.780Z,3.92
2023-02-12T14:41:41.723Z,3.89
2023-02-12T14:42:53.204Z,3.82
2023-02-12T14:44:44.608Z,3.77
2023-02-12T14:45:50.271Z,3.71
2023-02-12T14:46:54.463Z,3.74
2023-02-12T14:47:57.500Z,3.78